Time;durP1;ratioP1;P1;durP2;ratioP2;P2;SDS_P1;SDS_P2;PMS_P1;PMS_P2;Temp;Humidity;BMP_temperature;BMP_pressure;BME280_temperature;BME280_humidity;BME280_pressure;Samples;Min_cycle;Max_cycle;Signal;HPM_P1;HPM_P2
2023/10/06 00:03:05;;;;;;;11.07;5.30;;;13.90;99.90;;;;;;5126269;27;20043;-76
2023/10/06 00:05:32;;;;;;;10.07;4.90;;;13.90;99.90;;;;;;5128911;27;20065;-76
2023/10/06 00:07:58;;;;;;;15.32;6.03;;;13.80;99.90;;;;;;5124803;27;20035;-76
2023/10/06 00:10:27;;;;;;;10.40;5.05;;;13.80;99.90;;;;;;5127864;27;20042;-76
2023/10/06 00:12:58;;;;;;;12.48;5.75;;;13.80;99.90;;;;;;5111070;27;20069;-76
2023/10/06 00:15:39;;;;;;;8.38;4.95;;;13.90;99.90;;;;;;5110972;27;20049;-76
2023/10/06 00:18:27;;;;;;;10.60;5.25;;;13.90;99.90;;;;;;5107548;27;20128;-76
2023/10/06 00:20:57;;;;;;;9.15;5.35;;;13.80;99.90;;;;;;5109794;27;20074;-76
2023/10/06 00:23:27;;;;;;;12.30;6.32;;;13.90;99.90;;;;;;5124888;27;20051;-77
2023/10/06 00:26:04;;;;;;;10.35;5.43;;;13.80;99.90;;;;;;5112735;27;20034;-76
2023/10/06 00:28:32;;;;;;;9.90;5.50;;;13.90;99.90;;;;;;5126812;27;20043;-77
2023/10/06 00:31:06;;;;;;;13.05;5.80;;;13.90;99.90;;;;;;5126975;27;20058;-76
2023/10/06 00:33:33;;;;;;;12.85;5.95;;;14.00;99.90;;;;;;5110792;27;20070;-77
2023/10/06 00:36:16;;;;;;;11.65;6.10;;;13.90;99.90;;;;;;5127753;27;20100;-76
2023/10/06 00:38:50;;;;;;;10.20;5.55;;;13.90;99.90;;;;;;5126827;27;20051;-76
2023/10/06 00:41:17;;;;;;;11.38;6.13;;;13.90;99.90;;;;;;5109743;27;20057;-76
2023/10/06 00:43:43;;;;;;;12.60;6.03;;;13.90;99.90;;;;;;5112771;27;20081;-76
2023/10/06 00:46:20;;;;;;;16.35;7.32;;;13.90;99.90;;;;;;5123297;27;20035;-76
2023/10/06 00:48:56;;;;;;;10.68;6.45;;;13.90;99.90;;;;;;5127979;27;20141;-76
2023/10/06 00:51:25;;;;;;;12.85;7.70;;;13.90;99.90;;;;;;5110447;27;20085;-76
2023/10/06 00:53:52;;;;;;;13.52;7.75;;;13.90;99.90;;;;;;5123016;27;20053;-76
2023/10/06 00:56:23;;;;;;;14.88;7.07;;;13.90;99.90;;;;;;5126719;27;20050;-75
2023/10/06 00:58:49;;;;;;;;;;;13.90;99.90;;;;;;5111418;27;20134;-76
2023/10/06 01:01:17;;;;;;;14.10;8.05;;;13.90;99.90;;;;;;5109571;27;19919;-76
2023/10/06 01:04:08;;;;;;;13.13;8.00;;;13.90;99.90;;;;;;5105965;27;20508;-76
2023/10/06 01:06:42;;;;;;;14.30;8.07;;;13.90;99.90;;;;;;5111511;27;20039;-77
2023/10/06 01:09:16;;;;;;;11.55;7.95;;;13.90;99.90;;;;;;5125301;27;20400;-76
2023/10/06 01:11:49;;;;;;;15.35;9.20;;;13.90;99.90;;;;;;5109025;27;20070;-76
2023/10/06 01:14:21;;;;;;;13.00;8.40;;;13.90;99.90;;;;;;5108899;27;20436;-82
2023/10/06 01:16:51;;;;;;;14.15;8.57;;;14.00;99.90;;;;;;5127909;27;20071;-81
2023/10/06 01:19:26;;;;;;;12.75;8.70;;;13.90;99.90;;;;;;5109528;27;20840;-81
2023/10/06 01:21:53;;;;;;;14.77;7.88;;;13.90;99.90;;;;;;5120403;27;20050;-81
2023/10/06 01:24:26;;;;;;;11.63;8.05;;;14.00;99.90;;;;;;5125152;27;20039;-82
2023/10/06 01:27:11;;;;;;;15.25;9.13;;;13.90;99.90;;;;;;5109745;27;20054;-81
2023/10/06 01:29:38;;;;;;;12.75;8.18;;;14.00;99.90;;;;;;5110817;27;20043;-83
2023/10/06 01:32:07;;;;;;;12.77;8.38;;;13.90;99.90;;;;;;5123969;27;20062;-81
2023/10/06 01:34:38;;;;;;;13.95;8.57;;;13.90;99.90;;;;;;5111049;27;20134;-81
2023/10/06 01:37:07;;;;;;;14.85;8.90;;;13.90;99.90;;;;;;5110818;27;20098;-82
2023/10/06 01:39:35;;;;;;;15.20;8.60;;;13.90;99.90;;;;;;5138192;27;20066;-82
2023/10/06 01:42:07;;;;;;;15.00;9.50;;;14.00;99.90;;;;;;5122123;27;20055;-81
2023/10/06 01:44:36;;;;;;;16.88;9.52;;;14.00;99.90;;;;;;5107883;27;20460;-81
2023/10/06 01:47:05;;;;;;;14.48;9.38;;;14.00;99.90;;;;;;5129738;27;20135;-82
2023/10/06 01:49:36;;;;;;;14.95;10.18;;;14.00;99.90;;;;;;5124460;27;20438;-82
2023/10/06 01:52:05;;;;;;;13.02;9.13;;;13.90;99.90;;;;;;5096415;27;20153;-81
2023/10/06 01:54:34;;;;;;;13.20;9.05;;;14.00;99.90;;;;;;5082850;27;20052;-82
2023/10/06 01:57:11;;;;;;;14.55;9.55;;;13.90;99.90;;;;;;5083073;27;20350;-81
2023/10/06 01:59:37;;;;;;;14.80;9.93;;;14.00;99.90;;;;;;5081229;27;20058;-82
2023/10/06 02:02:13;;;;;;;15.88;9.98;;;13.90;99.90;;;;;;5090046;27;20429;-81
2023/10/06 02:04:49;;;;;;;14.10;9.60;;;13.90;99.90;;;;;;5082101;27;20058;-82
2023/10/06 02:07:15;;;;;;;15.30;9.35;;;13.90;99.90;;;;;;5096069;28;20156;-82
2023/10/06 02:09:40;;;;;;;15.52;9.50;;;13.90;99.90;;;;;;5084278;27;20126;-82
2023/10/06 02:12:07;;;;;;;11.80;8.77;;;13.90;99.90;;;;;;5080253;27;20577;-82
2023/10/06 02:14:33;;;;;;;14.48;9.45;;;13.90;99.90;;;;;;5081964;27;20095;-83
2023/10/06 02:17:05;;;;;;;14.73;9.60;;;13.90;99.90;;;;;;5084414;27;20050;-82
2023/10/06 02:19:32;;;;;;;13.73;9.15;;;14.00;99.90;;;;;;5083290;28;20058;-83
2023/10/06 02:21:59;;;;;;;12.13;9.05;;;14.00;99.90;;;;;;5093050;27;20398;-80
2023/10/06 02:24:25;;;;;;;15.63;9.73;;;14.00;99.90;;;;;;5107375;27;20043;-82
2023/10/06 02:26:57;;;;;;;14.98;9.75;;;14.00;99.90;;;;;;5127541;27;20405;-82
2023/10/06 02:29:23;;;;;;;13.82;9.63;;;14.00;99.90;;;;;;5106034;27;20070;-82
2023/10/06 02:31:50;;;;;;;15.13;9.35;;;14.00;99.90;;;;;;5102072;27;20104;-82
2023/10/06 02:34:29;;;;;;;14.00;8.82;;;14.00;99.90;;;;;;5107984;27;20399;-82
2023/10/06 02:37:00;;;;;;;16.10;10.30;;;14.00;99.90;;;;;;5121732;27;20039;-82
2023/10/06 02:39:33;;;;;;;13.93;9.02;;;14.00;99.90;;;;;;5107268;27;20066;-82
2023/10/06 02:42:03;;;;;;;14.82;10.02;;;14.00;99.90;;;;;;5119010;27;20039;-83
2023/10/06 02:44:30;;;;;;;15.20;9.80;;;14.00;99.90;;;;;;5104684;27;20679;-83
2023/10/06 02:46:59;;;;;;;16.05;9.65;;;14.00;99.90;;;;;;5125958;27;21998;-82
2023/10/06 02:49:36;;;;;;;16.30;10.07;;;14.00;99.90;;;;;;5121826;27;20043;-81
2023/10/06 02:52:20;;;;;;;13.80;9.10;;;14.00;99.90;;;;;;5106893;27;20268;-82
2023/10/06 02:54:56;;;;;;;15.02;9.77;;;14.00;99.90;;;;;;5124650;27;20091;-82
2023/10/06 02:57:22;;;;;;;15.70;10.38;;;14.00;99.90;;;;;;5105385;27;20046;-76
2023/10/06 02:59:48;;;;;;;16.25;10.45;;;14.00;99.90;;;;;;5124890;27;20148;-76
2023/10/06 03:02:17;;;;;;;13.82;10.07;;;14.00;99.90;;;;;;5120877;27;20133;-76
2023/10/06 03:04:43;;;;;;;17.38;11.05;;;14.00;99.90;;;;;;5106392;27;20075;-76
2023/10/06 03:07:15;;;;;;;17.35;11.00;;;14.00;99.90;;;;;;5121546;27;20076;-76
2023/10/06 03:09:46;;;;;;;22.90;11.50;;;14.00;99.90;;;;;;5109168;27;20057;-76
2023/10/06 03:12:26;;;;;;;15.10;9.90;;;14.00;99.90;;;;;;5108095;27;20399;-76
2023/10/06 03:14:58;;;;;;;18.13;11.00;;;14.00;99.90;;;;;;5112263;27;20042;-76
2023/10/06 03:17:24;;;;;;;18.98;11.05;;;13.90;99.90;;;;;;5112881;27;20064;-76
2023/10/06 03:22:41;;;;;;;16.42;10.70;;;13.80;99.90;;;;;;5130151;27;20047;-77
2023/10/06 03:25:14;;;;;;;16.05;10.95;;;13.80;99.90;;;;;;5113228;27;20043;-77
2023/10/06 03:27:40;;;;;;;18.48;11.63;;;13.80;99.90;;;;;;5129478;27;20047;-77
2023/10/06 03:30:33;;;;;;;18.77;11.50;;;13.70;99.90;;;;;;5116310;27;20069;-77
2023/10/06 03:32:54;;;;;;;17.27;11.80;;;13.70;99.90;;;;;;5126871;27;20391;-77
2023/10/06 03:35:36;;;;;;;19.98;11.68;;;13.70;99.90;;;;;;5126106;27;20047;-77
2023/10/06 03:41:07;;;;;;;17.48;11.95;;;13.70;99.90;;;;;;5127177;27;20416;-76
2023/10/06 03:43:47;;;;;;;18.17;11.95;;;13.70;99.90;;;;;;5131136;27;20050;-77
2023/10/06 03:46:15;;;;;;;17.08;12.15;;;13.70;99.90;;;;;;5126009;27;20058;-76
2023/10/06 03:48:41;;;;;;;17.80;11.65;;;13.60;99.90;;;;;;5129050;27;20098;-77
2023/10/06 03:51:07;;;;;;;17.25;11.38;;;13.70;99.90;;;;;;5130138;27;20072;-77
2023/10/06 03:53:33;;;;;;;16.42;11.93;;;13.70;99.90;;;;;;5108245;27;20092;-77
2023/10/06 03:55:59;;;;;;;19.52;12.13;;;13.70;99.90;;;;;;5108630;27;20544;-77
2023/10/06 03:58:28;;;;;;;20.38;11.65;;;13.70;99.90;;;;;;5122668;27;20577;-77
2023/10/06 04:00:54;;;;;;;17.73;11.07;;;13.70;99.90;;;;;;5110398;27;20125;-77
2023/10/06 04:03:20;;;;;;;19.13;12.63;;;13.70;99.90;;;;;;5126512;27;20577;-77
2023/10/06 04:05:48;;;;;;;17.77;11.95;;;13.70;99.90;;;;;;5127530;27;20117;-77
2023/10/06 04:08:24;;;;;;;17.70;11.65;;;13.70;99.90;;;;;;5111006;27;20046;-77
2023/10/06 04:10:53;;;;;;;14.70;10.43;;;13.70;99.90;;;;;;5125966;27;20042;-76
2023/10/06 04:13:20;;;;;;;17.38;11.57;;;13.70;99.90;;;;;;5125017;27;20053;-76
2023/10/06 04:15:49;;;;;;;17.05;11.27;;;13.70;99.90;;;;;;5126620;27;20500;-76
2023/10/06 04:18:21;;;;;;;15.13;10.40;;;13.70;99.90;;;;;;5131310;27;20058;-76
2023/10/06 04:20:48;;;;;;;13.65;10.10;;;13.70;99.90;;;;;;5124169;27;20039;-76
2023/10/06 04:23:17;;;;;;;16.50;10.48;;;13.70;99.90;;;;;;5127000;27;20046;-76
2023/10/06 04:25:43;;;;;;;16.38;10.27;;;13.70;99.90;;;;;;5125935;27;20509;-76
2023/10/06 04:28:16;;;;;;;14.73;10.13;;;13.70;99.90;;;;;;5124582;27;20330;-76
2023/10/06 04:30:46;;;;;;;12.70;10.00;;;13.70;99.90;;;;;;5124560;27;20043;-76
2023/10/06 04:33:18;;;;;;;16.25;9.45;;;13.70;99.90;;;;;;5127887;27;20043;-76
2023/10/06 04:36:07;;;;;;;12.70;9.25;;;13.70;99.90;;;;;;5125103;27;20054;-76
2023/10/06 04:38:37;;;;;;;13.63;8.73;;;13.60;99.90;;;;;;5134320;27;20066;-76
2023/10/06 04:41:08;;;;;;;14.35;9.25;;;13.60;99.90;;;;;;5114845;27;20049;-76
2023/10/06 04:43:34;;;;;;;14.40;9.75;;;13.60;99.90;;;;;;5127719;27;20054;-77
2023/10/06 04:46:00;;;;;;;14.40;9.00;;;13.60;99.90;;;;;;5113902;27;20070;-76
2023/10/06 04:48:26;;;;;;;13.32;8.95;;;13.60;99.90;;;;;;5130088;27;20429;-76
2023/10/06 04:50:53;;;;;;;14.00;9.70;;;13.60;99.90;;;;;;5127950;27;20125;-76
2023/10/06 04:53:19;;;;;;;16.50;9.10;;;13.60;99.90;;;;;;5129250;27;20046;-76
2023/10/06 04:55:45;;;;;;;15.50;9.20;;;13.60;99.90;;;;;;5112644;27;21111;-77
2023/10/06 04:58:15;;;;;;;14.75;8.48;;;13.60;99.90;;;;;;5124761;27;20039;-76
2023/10/06 05:00:41;;;;;;;14.80;8.88;;;13.60;99.90;;;;;;5139419;27;20198;-76
2023/10/06 05:03:10;;;;;;;16.73;8.95;;;13.60;99.90;;;;;;5109845;27;20446;-76
2023/10/06 05:05:38;;;;;;;15.77;9.48;;;13.60;99.90;;;;;;5126403;27;20151;-76
2023/10/06 05:08:09;;;;;;;12.65;8.80;;;13.60;99.90;;;;;;5113167;27;20067;-77
2023/10/06 05:10:41;;;;;;;14.35;9.57;;;13.60;99.90;;;;;;5115474;27;20094;-76
2023/10/06 05:13:07;;;;;;;15.77;9.65;;;13.60;99.90;;;;;;5129455;27;20039;-77
2023/10/06 05:15:40;;;;;;;12.63;7.80;;;13.70;99.90;;;;;;5114652;27;20097;-76
2023/10/06 05:18:07;;;;;;;14.02;8.80;;;13.70;99.90;;;;;;5132061;27;20134;-76
2023/10/06 05:20:35;;;;;;;15.73;8.85;;;13.70;99.90;;;;;;5116671;27;20042;-76
2023/10/06 05:23:07;;;;;;;16.55;8.73;;;13.70;99.90;;;;;;5117532;27;20050;-76
2023/10/06 05:25:33;;;;;;;12.43;8.60;;;13.70;99.90;;;;;;5130795;27;20092;-77
2023/10/06 05:28:00;;;;;;;14.73;9.00;;;13.70;99.90;;;;;;5126875;27;20443;-77
2023/10/06 05:30:30;;;;;;;15.75;8.95;;;13.70;99.90;;;;;;5127417;27;20046;-76
2023/10/06 05:32:59;;;;;;;;;;;13.70;99.90;;;;;;5112026;27;20062;-77
2023/10/06 05:35:42;;;;;;;18.20;9.05;;;13.70;99.90;;;;;;5113379;27;19919;-77
2023/10/06 05:38:15;;;;;;;15.52;9.25;;;13.70;99.90;;;;;;5115426;27;20503;-76
2023/10/06 05:40:44;;;;;;;16.50;9.77;;;13.70;99.90;;;;;;5123619;27;20046;-76
2023/10/06 05:43:15;;;;;;;14.75;9.35;;;13.80;99.90;;;;;;5119757;27;20038;-76
2023/10/06 05:45:51;;;;;;;17.42;9.25;;;13.70;99.90;;;;;;5130785;27;20058;-76
2023/10/06 05:48:21;;;;;;;13.13;9.27;;;13.80;99.90;;;;;;5112049;27;20043;-75
2023/10/06 05:50:48;;;;;;;13.90;8.53;;;13.80;99.90;;;;;;5129465;27;20055;-76
2023/10/06 05:53:22;;;;;;;15.73;8.98;;;13.80;99.90;;;;;;5130978;27;20293;-76
2023/10/06 05:55:52;;;;;;;12.80;8.57;;;13.90;99.90;;;;;;5114457;27;20042;-76
2023/10/06 05:58:23;;;;;;;15.02;9.05;;;13.80;99.90;;;;;;5109820;27;20039;-76
2023/10/06 06:00:55;;;;;;;17.00;10.00;;;13.80;99.90;;;;;;5126603;27;20389;-76
2023/10/06 06:03:25;;;;;;;13.13;9.35;;;13.90;99.90;;;;;;5110293;27;20076;-76
2023/10/06 06:06:02;;;;;;;14.57;9.55;;;13.90;99.90;;;;;;5129067;27;21378;-76
2023/10/06 06:08:31;;;;;;;16.50;10.98;;;13.90;99.90;;;;;;5116826;27;20867;-76
2023/10/06 06:10:57;;;;;;;14.82;9.77;;;13.90;99.90;;;;;;5129477;27;20595;-76
2023/10/06 06:13:23;;;;;;;16.50;10.60;;;13.90;99.90;;;;;;5130640;27;20046;-75
2023/10/06 06:15:49;;;;;;;15.77;9.85;;;13.90;99.90;;;;;;5124894;27;20121;-76
2023/10/06 06:18:15;;;;;;;15.30;9.85;;;13.90;99.90;;;;;;5129933;27;20457;-77
2023/10/06 06:20:41;;;;;;;14.98;9.30;;;14.00;99.90;;;;;;5116927;27;20042;-76
2023/10/06 06:23:09;;;;;;;15.73;10.10;;;14.00;99.90;;;;;;5117224;27;20066;-77
2023/10/06 06:25:39;;;;;;;21.30;11.02;;;14.00;99.90;;;;;;5127122;27;20090;-76
2023/10/06 06:28:05;;;;;;;;;;;14.00;99.90;;;;;;5114673;27;20122;-80
2023/10/06 06:30:37;;;;;;;15.50;9.82;;;14.00;99.90;;;;;;5109105;27;20014;-81
2023/10/06 06:33:04;;;;;;;13.38;9.05;;;14.00;99.90;;;;;;5125727;27;20034;-81
2023/10/06 06:35:32;;;;;;;15.95;9.20;;;14.10;99.90;;;;;;5110614;27;20043;-82
2023/10/06 06:38:05;;;;;;;20.50;10.93;;;14.10;99.90;;;;;;5114789;27;20438;-80
2023/10/06 06:40:32;;;;;;;15.52;10.57;;;14.10;99.90;;;;;;5121450;27;20046;-81
2023/10/06 06:43:02;;;;;;;16.67;9.73;;;14.10;99.90;;;;;;5111704;27;20044;-82
2023/10/06 06:45:32;;;;;;;15.70;10.07;;;14.10;99.90;;;;;;5107999;27;20125;-81
2023/10/06 06:48:00;;;;;;;16.20;9.73;;;14.20;99.90;;;;;;5129578;27;20042;-77
2023/10/06 06:50:26;;;;;;;14.55;10.48;;;14.20;99.90;;;;;;5119822;27;20134;-78
2023/10/06 06:52:56;;;;;;;15.15;10.32;;;14.20;99.90;;;;;;5109865;27;20233;-77
2023/10/06 06:55:23;;;;;;;15.80;10.93;;;14.20;99.90;;;;;;5119262;27;20038;-79
2023/10/06 06:57:57;;;;;;;17.85;11.15;;;14.20;99.90;;;;;;5111801;27;20039;-78
2023/10/06 07:00:26;;;;;;;18.63;11.23;;;14.20;99.90;;;;;;5130479;27;20043;-77
2023/10/06 07:02:52;;;;;;;18.30;10.23;;;14.20;99.90;;;;;;5124042;27;20050;-78
2023/10/06 07:05:21;;;;;;;19.55;11.20;;;14.20;99.90;;;;;;5113901;27;20031;-77
2023/10/06 07:07:50;;;;;;;17.60;11.35;;;14.30;99.90;;;;;;5118949;27;20036;-78
2023/10/06 07:10:21;;;;;;;16.45;10.02;;;14.20;99.90;;;;;;5113201;27;20059;-77
2023/10/06 07:12:48;;;;;;;16.38;10.43;;;14.20;99.90;;;;;;5133158;27;20046;-78
2023/10/06 07:15:17;;;;;;;17.88;10.80;;;14.30;99.90;;;;;;5110955;27;20158;-77
2023/10/06 07:17:56;;;;;;;15.27;10.52;;;14.30;99.90;;;;;;5112945;27;20035;-78
2023/10/06 07:20:24;;;;;;;18.45;11.25;;;14.30;99.90;;;;;;5116209;27;20496;-78
2023/10/06 07:22:55;;;;;;;14.73;9.98;;;14.30;99.90;;;;;;5110774;27;20126;-77
2023/10/06 07:25:28;;;;;;;18.38;10.27;;;14.30;99.90;;;;;;5115860;27;20156;-77
2023/10/06 07:27:57;;;;;;;15.30;10.70;;;14.30;99.90;;;;;;5120171;27;20027;-78
2023/10/06 07:30:27;;;;;;;17.27;10.57;;;14.30;99.90;;;;;;5128311;27;20047;-78
2023/10/06 07:32:56;;;;;;;15.32;9.57;;;14.30;99.90;;;;;;5137198;27;20031;-78
2023/10/06 07:35:37;;;;;;;15.40;9.93;;;14.30;99.90;;;;;;5132736;27;20051;-78
2023/10/06 07:38:03;;;;;;;;;;;14.30;99.90;;;;;;5109371;27;20381;-78
2023/10/06 07:40:29;;;;;;;12.30;10.00;;;14.30;99.90;;;;;;5108275;27;19923;-77
2023/10/06 07:42:55;;;;;;;14.48;9.63;;;14.40;99.90;;;;;;5112906;27;20057;-79
2023/10/06 07:45:21;;;;;;;15.00;9.98;;;14.40;99.90;;;;;;5114616;27;20500;-79
2023/10/06 07:47:47;;;;;;;16.15;10.50;;;14.40;99.90;;;;;;5112548;27;20070;-78
2023/10/06 07:50:22;;;;;;;17.42;10.88;;;14.40;99.90;;;;;;5110207;27;20051;-77
2023/10/06 07:52:48;;;;;;;17.05;10.05;;;14.40;99.90;;;;;;5106798;27;20485;-77
2023/10/06 07:55:15;;;;;;;16.02;9.82;;;14.50;99.90;;;;;;5110681;27;20043;-77
2023/10/06 07:57:48;;;;;;;15.50;10.27;;;14.50;99.90;;;;;;5129125;27;20130;-77
2023/10/06 08:00:24;;;;;;;16.38;10.30;;;14.60;99.90;;;;;;5115064;27;20042;-77
2023/10/06 08:02:50;;;;;;;18.55;10.40;;;14.60;99.90;;;;;;5115834;27;20131;-77
2023/10/06 08:05:19;;;;;;;15.38;9.50;;;14.70;99.90;;;;;;5126539;27;20931;-78
2023/10/06 08:07:44;;;;;;;13.93;9.57;;;14.70;99.90;;;;;;5127242;27;20520;-78
2023/10/06 08:10:14;;;;;;;12.90;9.02;;;14.70;99.90;;;;;;5115064;27;20058;-76
2023/10/06 08:12:41;;;;;;;;;;;14.80;99.90;;;;;;5114147;27;20047;-77
2023/10/06 08:15:09;;;;;;;16.08;9.50;;;14.80;99.90;;;;;;5131638;27;19977;-77
2023/10/06 08:17:41;;;;;;;16.88;9.98;;;14.80;99.90;;;;;;5131611;27;20641;-76
2023/10/06 08:20:12;;;;;;;17.13;9.80;;;14.90;99.90;;;;;;5111292;27;20051;-77
2023/10/06 08:22:45;;;;;;;14.73;8.88;;;14.90;99.90;;;;;;5094576;27;20043;-77
2023/10/06 08:25:13;;;;;;;17.00;10.57;;;15.00;99.90;;;;;;5066014;28;20530;-77
2023/10/06 08:27:48;;;;;;;18.13;9.50;;;15.00;99.90;;;;;;5083814;28;20154;-77
2023/10/06 08:30:19;;;;;;;16.92;9.90;;;15.10;99.90;;;;;;5082095;28;20133;-77
2023/10/06 08:32:52;;;;;;;19.40;9.27;;;15.10;99.90;;;;;;5085984;28;20579;-77
2023/10/06 08:35:19;;;;;;;16.00;9.07;;;15.10;99.90;;;;;;5079982;27;20196;-76
2023/10/06 08:37:51;;;;;;;15.07;9.40;;;15.20;99.90;;;;;;5086782;27;20059;-76
2023/10/06 08:40:22;;;;;;;16.33;9.50;;;15.20;99.90;;;;;;5060044;28;20375;-76
2023/10/06 08:42:56;;;;;;;17.52;9.50;;;15.20;99.90;;;;;;5065578;28;20051;-76
2023/10/06 08:45:26;;;;;;;14.23;9.38;;;15.20;99.90;;;;;;5093128;27;20051;-77
2023/10/06 08:47:59;;;;;;;16.55;9.35;;;15.20;99.90;;;;;;5105160;27;20056;-77
2023/10/06 08:50:30;;;;;;;17.48;9.40;;;15.30;99.90;;;;;;5084353;27;20095;-76
2023/10/06 08:52:58;;;;;;;18.38;9.57;;;15.30;99.90;;;;;;5074885;27;20061;-77
2023/10/06 08:55:25;;;;;;;17.05;9.57;;;15.40;99.90;;;;;;5128259;27;20049;-76
2023/10/06 08:57:52;;;;;;;20.60;10.40;;;15.40;99.90;;;;;;5133880;27;20043;-77
2023/10/06 09:00:26;;;;;;;16.52;9.50;;;15.50;99.90;;;;;;5131714;27;20035;-77
2023/10/06 09:02:54;;;;;;;15.13;9.45;;;15.50;99.90;;;;;;5122673;27;20528;-77
2023/10/06 09:05:21;;;;;;;13.80;9.00;;;15.50;99.90;;;;;;5115121;27;20043;-77
2023/10/06 09:08:07;;;;;;;15.23;9.73;;;15.50;99.90;;;;;;5109078;27;20039;-77
2023/10/06 09:10:35;;;;;;;15.45;9.20;;;15.60;99.90;;;;;;5124823;27;20263;-77
2023/10/06 09:13:12;;;;;;;13.98;8.75;;;15.60;99.90;;;;;;5122821;27;20063;-76
2023/10/06 09:15:43;;;;;;;15.15;9.63;;;15.60;99.90;;;;;;5111511;27;20031;-77
2023/10/06 09:18:22;;;;;;;14.65;9.27;;;15.60;99.90;;;;;;5127319;27;20061;-78
2023/10/06 09:20:49;;;;;;;15.07;9.60;;;15.70;99.90;;;;;;5107404;27;20053;-77
2023/10/06 09:23:41;;;;;;;13.20;9.10;;;15.70;99.90;;;;;;5111213;27;20058;-78
2023/10/06 09:26:12;;;;;;;16.55;9.32;;;15.80;99.90;;;;;;5110558;27;20517;-77
2023/10/06 09:28:51;;;;;;;21.13;10.10;;;16.00;99.90;;;;;;5128974;27;20545;-77
2023/10/06 09:31:57;;;;;;;16.70;10.07;;;16.00;99.90;;;;;;5120150;27;20111;-77
2023/10/06 09:34:24;;;;;;;16.63;9.07;;;16.10;99.90;;;;;;5096183;28;20082;-77
2023/10/06 09:36:50;;;;;;;12.95;9.07;;;16.10;99.90;;;;;;5062297;28;20372;-77
2023/10/06 09:39:32;;;;;;;12.88;9.35;;;16.20;99.90;;;;;;5066070;28;20053;-77
2023/10/06 09:42:05;;;;;;;13.75;9.45;;;16.30;99.90;;;;;;5073873;27;20057;-77
2023/10/06 09:44:34;;;;;;;13.07;9.02;;;16.30;99.90;;;;;;5110508;27;20129;-83
2023/10/06 09:47:03;;;;;;;16.08;9.52;;;16.30;99.90;;;;;;5125080;27;20400;-85
2023/10/06 09:49:31;;;;;;;13.68;8.02;;;16.40;99.90;;;;;;5127509;27;20598;-82
2023/10/06 09:52:01;;;;;;;17.20;9.48;;;16.50;99.90;;;;;;5125937;27;20479;-83
2023/10/06 09:54:29;;;;;;;18.10;9.73;;;16.50;99.90;;;;;;5128140;27;20051;-84
2023/10/06 09:56:55;;;;;;;14.18;8.93;;;16.50;99.90;;;;;;5128324;27;20046;-81
2023/10/06 09:59:23;;;;;;;16.15;9.18;;;16.60;99.90;;;;;;5126207;27;20183;-83
2023/10/06 10:01:51;;;;;;;10.73;8.25;;;16.60;99.90;;;;;;5110978;27;20590;-81
2023/10/06 10:04:20;;;;;;;15.88;8.70;;;16.60;99.90;;;;;;5128539;27;20400;-84
2023/10/06 10:06:49;;;;;;;17.25;8.88;;;16.70;99.90;;;;;;5131032;27;20079;-83
2023/10/06 10:09:17;;;;;;;15.13;8.80;;;16.70;99.90;;;;;;5112272;27;20053;-83
2023/10/06 10:12:04;;;;;;;12.52;8.70;;;16.80;99.90;;;;;;5129396;27;20126;-84
2023/10/06 10:15:16;;;;;;;14.65;7.82;;;16.90;99.90;;;;;;5116704;27;20046;-83
2023/10/06 10:18:04;;;;;;;15.38;8.05;;;16.90;99.90;;;;;;5112850;27;20523;-84
2023/10/06 10:20:34;;;;;;;13.18;7.95;;;17.00;99.90;;;;;;5125562;27;20092;-81
2023/10/06 10:23:03;;;;;;;12.38;7.18;;;17.10;99.90;;;;;;5126900;27;20074;-83
2023/10/06 10:25:30;;;;;;;14.05;7.85;;;17.20;99.90;;;;;;5125274;27;20035;-83
2023/10/06 10:28:19;;;;;;;13.48;7.35;;;17.30;99.90;;;;;;5109099;27;20505;-83
2023/10/06 10:31:00;;;;;;;16.38;7.25;;;17.40;99.90;;;;;;5129981;27;20041;-83
2023/10/06 10:33:30;;;;;;;12.50;6.93;;;17.60;99.90;;;;;;5124268;27;20043;-83
2023/10/06 10:36:22;;;;;;;;;;;17.60;99.90;;;;;;5112594;27;20066;-82
2023/10/06 10:39:12;;;;;;;12.50;6.13;;;17.60;99.90;;;;;;5122527;27;19941;-82
2023/10/06 10:41:51;;;;;;;14.70;7.32;;;17.70;99.90;;;;;;5115102;27;20050;-82
2023/10/06 10:44:20;;;;;;;11.40;6.30;;;17.70;99.90;;;;;;5126312;27;20049;-84
2023/10/06 10:47:02;;;;;;;13.75;6.63;;;17.70;99.90;;;;;;5112195;27;20122;-83
2023/10/06 10:49:32;;;;;;;11.43;6.13;;;17.80;99.90;;;;;;5108901;27;20051;-81
2023/10/06 10:52:09;;;;;;;10.63;6.13;;;17.80;99.90;;;;;;5129296;27;20440;-83
2023/10/06 10:54:42;;;;;;;15.40;6.60;;;17.80;99.90;;;;;;5114581;27;20146;-82
2023/10/06 10:57:18;;;;;;;12.75;5.90;;;17.80;99.90;;;;;;5111317;27;20146;-83
2023/10/06 11:02:52;;;;;;;13.82;6.05;;;17.70;99.90;;;;;;5125086;27;20051;-82
2023/10/06 11:05:22;;;;;;;12.60;5.60;;;17.80;99.90;;;;;;5129719;27;20039;-82
2023/10/06 11:08:01;;;;;;;13.68;5.72;;;17.80;99.90;;;;;;5123124;27;20350;-82
2023/10/06 11:10:28;;;;;;;12.25;5.50;;;17.80;99.90;;;;;;5110821;27;20103;-82
2023/10/06 11:13:16;;;;;;;12.93;5.63;;;17.80;99.90;;;;;;5124910;27;20039;-83
2023/10/06 11:15:42;;;;;;;11.98;5.50;;;17.80;99.90;;;;;;5112666;27;20090;-82
2023/10/06 11:18:13;;;;;;;9.55;5.03;;;17.80;99.90;;;;;;5109930;27;20032;-81
2023/10/06 11:20:42;;;;;;;12.85;5.95;;;17.90;99.90;;;;;;5123883;27;20070;-82
2023/10/06 11:23:08;;;;;;;11.52;4.90;;;17.90;99.90;;;;;;5113946;27;20082;-82
2023/10/06 11:25:38;;;;;;;14.60;5.28;;;17.80;99.90;;;;;;5127658;27;20112;-82
2023/10/06 11:28:08;;;;;;;12.02;6.28;;;17.80;99.90;;;;;;5123864;27;20100;-83
2023/10/06 11:30:38;;;;;;;11.50;6.10;;;17.80;99.90;;;;;;5111431;27;20405;-82
2023/10/06 11:33:09;;;;;;;12.52;5.97;;;17.80;99.90;;;;;;5120980;27;20047;-83
2023/10/06 11:35:36;;;;;;;16.48;6.50;;;17.80;99.90;;;;;;5116729;27;20043;-84
2023/10/06 11:38:06;;;;;;;14.13;6.60;;;17.80;99.90;;;;;;5128014;27;20363;-77
2023/10/06 11:40:34;;;;;;;14.50;6.53;;;17.80;99.90;;;;;;5113487;27;20051;-78
2023/10/06 11:43:23;;;;;;;13.65;6.55;;;17.80;99.90;;;;;;5113847;27;20110;-77
2023/10/06 11:46:19;;;;;;;16.35;6.30;;;17.80;99.90;;;;;;5127338;27;20501;-77
2023/10/06 11:48:44;;;;;;;13.70;6.55;;;17.80;99.90;;;;;;5128108;27;20058;-77
2023/10/06 11:51:12;;;;;;;13.65;6.45;;;17.90;99.90;;;;;;5114500;27;20039;-77
2023/10/06 11:53:40;;;;;;;12.15;6.07;;;18.00;99.90;;;;;;5113925;27;20039;-76
2023/10/06 11:56:12;;;;;;;14.80;6.40;;;18.10;99.90;;;;;;5130066;27;20497;-77
2023/10/06 11:58:41;;;;;;;9.27;5.90;;;18.20;99.90;;;;;;5111937;27;20043;-78
2023/10/06 12:01:37;;;;;;;12.82;5.90;;;18.40;99.90;;;;;;5128231;27;20101;-77
2023/10/06 12:04:08;;;;;;;11.75;5.75;;;18.40;99.90;;;;;;5127346;27;20039;-76
2023/10/06 12:06:41;;;;;;;10.10;5.55;;;18.40;99.90;;;;;;5110121;27;20111;-76
2023/10/06 12:09:08;;;;;;;13.38;5.55;;;18.50;99.90;;;;;;5129410;27;20049;-76
2023/10/06 12:11:37;;;;;;;14.27;6.10;;;18.60;99.90;;;;;;5112713;27;20096;-76
2023/10/06 12:14:03;;;;;;;11.57;5.28;;;18.60;99.90;;;;;;5125835;27;20035;-77
2023/10/06 12:16:29;;;;;;;12.57;5.95;;;18.60;99.90;;;;;;5126090;27;20594;-76
2023/10/06 12:18:55;;;;;;;12.48;5.80;;;18.70;99.90;;;;;;5131851;27;20046;-76
2023/10/06 12:21:20;;;;;;;14.20;6.05;;;18.70;99.90;;;;;;5112437;27;20039;-75
2023/10/06 12:23:47;;;;;;;13.10;5.85;;;18.70;99.90;;;;;;5113786;27;20419;-76
2023/10/06 12:26:13;;;;;;;14.50;6.70;;;18.70;99.90;;;;;;5113042;27;20545;-76
2023/10/06 12:28:42;;;;;;;11.63;5.68;;;18.60;99.90;;;;;;5131617;27;20087;-76
2023/10/06 12:31:11;;;;;;;13.63;6.53;;;18.60;99.90;;;;;;5125689;27;20050;-76
2023/10/06 12:33:38;;;;;;;11.27;6.33;;;18.60;99.90;;;;;;5121633;27;20042;-76
2023/10/06 12:36:12;;;;;;;12.38;6.38;;;18.60;99.90;;;;;;5115631;27;20074;-76
2023/10/06 12:38:44;;;;;;;13.00;6.20;;;18.60;99.90;;;;;;5117178;27;20095;-76
2023/10/06 12:41:12;;;;;;;14.25;5.75;;;18.60;99.90;;;;;;5130075;27;20052;-76
2023/10/06 12:43:37;;;;;;;12.73;6.10;;;18.60;99.90;;;;;;5131240;27;20455;-76
2023/10/06 12:46:04;;;;;;;13.80;5.15;;;18.70;99.90;;;;;;5116664;27;20042;-76
2023/10/06 12:48:31;;;;;;;12.70;5.55;;;18.70;99.90;;;;;;5106658;27;20047;-76
2023/10/06 12:50:57;;;;;;;13.70;5.10;;;18.80;99.90;;;;;;5115151;27;20043;-76
2023/10/06 12:53:25;;;;;;;14.40;5.55;;;18.90;99.90;;;;;;5128104;27;20038;-77
2023/10/06 12:55:56;;;;;;;9.95;4.55;;;18.90;99.90;;;;;;5126773;27;20145;-76
2023/10/06 12:58:22;;;;;;;12.05;4.63;;;19.00;99.90;;;;;;5125352;27;20051;-76
2023/10/06 13:00:48;;;;;;;13.38;4.43;;;19.00;99.90;;;;;;5111241;27;20046;-76
2023/10/06 13:03:17;;;;;;;12.65;4.78;;;19.00;99.90;;;;;;5125472;27;20401;-76
2023/10/06 13:05:45;;;;;;;13.15;4.38;;;19.00;99.90;;;;;;5109595;27;20051;-76